Thunder radar more information blitzortung!


Radar de pluja more information rain snow radar


Visita la nostra xarxa de llocs de meteo:

Template documentation
and downloads

And another site



No particular awareness of the weather is required.    There are no Weather-warnings

Pagina Historial Weather Underground text

Diari Resum Juliol 29, 2017 Unitats:  Tant    Imperial   Mètric
« Previous Dia
SegĂźent Dia »
Diari Setmana Mensual Anual Personalitzada
  Maxima: Minima: Media:
Temperatura: 94.8 °F /  34.9 °C 67.5 °F /  19.7 °C 82.4 °F /  28 °C
Punt de rosada: 67.8 °F /  19.9 °C 54.7 °F /  12.6 °C 61.3 °F /  16.3 °C
Humitat: 88 % 29 % 52 %
Wind Speed: 15 mph /  24.1 km/h - 4 mph /  6.5 km/h
RĂ fegues de vent: 15 mph /  24.1 km/h - -
Vent:- - South
Pression baro: 30 in /  1015.8 hPa 29.9 in /  1011.7 hPa -
Precipitacions: 0 in /  0.0 mm    
Historical Graphs
 
 
Dades de taula per Juliol 29, 2017
Temps Temperatura Punt de rosada Pression baro Vent Wind Speed RĂ fegues de vent Humitat Rainfall Rate (Hourly)
00:00 69.1 °F /  20.6 °C 64.4 °F /  18.0 °C 30 in /  1015.8 hPa Calm   2 mph /  3.2 km/h 85 % 0 in /  0.0 mm
00:03 73.2 °F /  22.9 °C 66.4 °F /  19.1 °C 30 in /  1015.8 hPa NNE 3.5 mph /  5.6 km/h 3.5 mph /  5.6 km/h 79 % 0 in /  0.0 mm
00:10 68.7 °F /  20.4 °C 64 °F /  17.8 °C 30 in /  1015.8 hPa Calm   1 mph /  1.6 km/h 85 % 0 in /  0.0 mm
00:20 68.7 °F /  20.4 °C 64 °F /  17.8 °C 30 in /  1014.8 hPa Calm     85 % 0 in /  0.0 mm
00:30 68.5 °F /  20.3 °C 64.2 °F /  17.9 °C 30 in /  1014.8 hPa SW 1 mph /  1.6 km/h 2 mph /  3.2 km/h 86 % 0 in /  0.0 mm
00:40 68.4 °F /  20.2 °C 64 °F /  17.8 °C 30 in /  1014.8 hPa SW 1 mph /  1.6 km/h 2 mph /  3.2 km/h 86 % 0 in /  0.0 mm
00:50 68.4 °F /  20.2 °C 64.2 °F /  17.9 °C 30 in /  1014.8 hPa Calm   1 mph /  1.6 km/h 87 % 0 in /  0.0 mm
01:00 68.4 °F /  20.2 °C 64.2 °F /  17.9 °C 30 in /  1014.8 hPa Calm     87 % 0 in /  0.0 mm
01:10 68.2 °F /  20.1 °C 64.2 °F /  17.9 °C 30 in /  1014.8 hPa Calm     87 % 0 in /  0.0 mm
01:20 68.2 °F /  20.1 °C 64.6 °F /  18.1 °C 30 in /  1014.8 hPa Calm     88 % 0 in /  0.0 mm
01:30 67.8 °F /  19.9 °C 64 °F /  17.8 °C 30 in /  1014.8 hPa Calm     88 % 0 in /  0.0 mm
01:40 67.8 °F /  19.9 °C 64 °F /  17.8 °C 30 in /  1014.8 hPa Calm     88 % 0 in /  0.0 mm
01:50 67.6 °F /  19.8 °C 64 °F /  17.8 °C 30 in /  1014.8 hPa Calm     88 % 0 in /  0.0 mm
02:00 67.5 °F /  19.7 °C 63.9 °F /  17.7 °C 30 in /  1014.8 hPa Calm     88 % 0 in /  0.0 mm
02:10 67.5 °F /  19.7 °C 63.9 °F /  17.7 °C 30 in /  1015.8 hPa Calm     88 % 0 in /  0.0 mm
02:20 67.6 °F /  19.8 °C 64 °F /  17.8 °C 30 in /  1014.8 hPa Calm     88 % 0 in /  0.0 mm
02:30 67.6 °F /  19.8 °C 64 °F /  17.8 °C 30 in /  1014.8 hPa South 1 mph /  1.6 km/h 1 mph /  1.6 km/h 88 % 0 in /  0.0 mm
02:40 67.8 °F /  19.9 °C 64 °F /  17.8 °C 30 in /  1014.8 hPa Calm   2 mph /  3.2 km/h 88 % 0 in /  0.0 mm
02:50 68.4 °F /  20.2 °C 64.8 °F /  18.2 °C 30 in /  1015.8 hPa WSW 1 mph /  1.6 km/h 1 mph /  1.6 km/h 88 % 0 in /  0.0 mm
03:00 69.1 °F /  20.6 °C 65.5 °F /  18.6 °C 30 in /  1015.8 hPa Calm   1 mph /  1.6 km/h 88 % 0 in /  0.0 mm
03:10 69.8 °F /  21.0 °C 65.8 °F /  18.8 °C 30 in /  1015.8 hPa ESE 1 mph /  1.6 km/h 2 mph /  3.2 km/h 87 % 0 in /  0.0 mm
03:20 70.3 °F /  21.3 °C 66 °F /  18.9 °C 30 in /  1015.8 hPa East 1 mph /  1.6 km/h 1 mph /  1.6 km/h 86 % 0 in /  0.0 mm
03:30 70.7 °F /  21.5 °C 66 °F /  18.9 °C 30 in /  1015.8 hPa SSE 2 mph /  3.2 km/h 2 mph /  3.2 km/h 85 % 0 in /  0.0 mm
03:40 71.6 °F /  22.0 °C 66.6 °F /  19.2 °C 30 in /  1015.8 hPa SSW 1 mph /  1.6 km/h 2 mph /  3.2 km/h 84 % 0 in /  0.0 mm
04:00 73.9 °F /  23.3 °C 66.4 °F /  19.1 °C 30 in /  1015.8 hPa ENE 1 mph /  1.6 km/h 2 mph /  3.2 km/h 77 % 0 in /  0.0 mm
04:10 74.3 °F /  23.5 °C 66.2 °F /  19.0 °C 30 in /  1015.8 hPa ENE 3 mph /  4.8 km/h 3 mph /  4.8 km/h 76 % 0 in /  0.0 mm
04:20 76.1 °F /  24.5 °C 67.3 °F /  19.6 °C 30 in /  1015.8 hPa ENE 1 mph /  1.6 km/h 2 mph /  3.2 km/h 74 % 0 in /  0.0 mm
04:30 75.9 °F /  24.4 °C 66.2 °F /  19.0 °C 30 in /  1015.8 hPa ENE 2 mph /  3.2 km/h 4 mph /  6.4 km/h 72 % 0 in /  0.0 mm
04:40 77.2 °F /  25.1 °C 66.9 °F /  19.4 °C 30 in /  1014.8 hPa Calm   2 mph /  3.2 km/h 71 % 0 in /  0.0 mm
04:50 77.9 °F /  25.5 °C 66.6 °F /  19.2 °C 30 in /  1015.8 hPa NNE 1 mph /  1.6 km/h 2 mph /  3.2 km/h 68 % 0 in /  0.0 mm
05:00 79 °F /  26.1 °C 66.6 °F /  19.2 °C 30 in /  1015.8 hPa ESE 3 mph /  4.8 km/h 4 mph /  6.4 km/h 66 % 0 in /  0.0 mm
05:10 78.8 °F /  26.0 °C 66 °F /  18.9 °C 30 in /  1015.8 hPa ESE 2 mph /  3.2 km/h 4 mph /  6.4 km/h 65 % 0 in /  0.0 mm
05:20 79.5 °F /  26.4 °C 66.7 °F /  19.3 °C 30 in /  1015.8 hPa East 2 mph /  3.2 km/h 4 mph /  6.4 km/h 65 % 0 in /  0.0 mm
05:30 79.5 °F /  26.4 °C 65.5 °F /  18.6 °C 30 in /  1015.8 hPa NE 5 mph /  8.0 km/h 5 mph /  8.0 km/h 62 % 0 in /  0.0 mm
10:33 79.7 °F /  26.5 °C 65.5 °F /  18.6 °C 30 in /  1015.8 hPa ENE 3.5 mph /  5.6 km/h 3.5 mph /  5.6 km/h 62 % 0 in /  0.0 mm
10:38 80.1 °F /  26.7 °C 64 °F /  17.8 °C 30 in /  1015.8 hPa East 5.8 mph /  9.3 km/h 5.8 mph /  9.3 km/h 58 % 0 in /  0.0 mm
10:43 80.2 °F /  26.8 °C 64 °F /  17.8 °C 30 in /  1015.8 hPa NNE 3.5 mph /  5.6 km/h 3.5 mph /  5.6 km/h 58 % 0 in /  0.0 mm
10:48 80.8 °F /  27.1 °C 64 °F /  17.8 °C 30 in /  1015.8 hPa SSE 3.5 mph /  5.6 km/h 3.5 mph /  5.6 km/h 57 % 0 in /  0.0 mm
10:53 82 °F /  27.8 °C 65.8 °F /  18.8 °C 30 in /  1015.8 hPa SW 2.4 mph /  3.9 km/h 2.4 mph /  3.9 km/h 58 % 0 in /  0.0 mm
10:58 81.9 °F /  27.7 °C 66 °F /  18.9 °C 30 in /  1015.8 hPa SW 4.6 mph /  7.4 km/h 4.6 mph /  7.4 km/h 59 % 0 in /  0.0 mm
11:03 82.6 °F /  28.1 °C 66.4 °F /  19.1 °C 30 in /  1014.8 hPa NW 2.4 mph /  3.9 km/h 2.4 mph /  3.9 km/h 58 % 0 in /  0.0 mm
11:08 82.6 °F /  28.1 °C 66.4 °F /  19.1 °C 30 in /  1014.8 hPa SSW 2.3 mph /  3.7 km/h 2.3 mph /  3.7 km/h 58 % 0 in /  0.0 mm
11:13 84.4 °F /  29.1 °C 66.4 °F /  19.1 °C 30 in /  1014.8 hPa SSE 2.6 mph /  4.2 km/h 2.6 mph /  4.2 km/h 55 % 0 in /  0.0 mm
11:18 84.6 °F /  29.2 °C 66.6 °F /  19.2 °C 30 in /  1014.8 hPa NE 4.6 mph /  7.4 km/h 4.6 mph /  7.4 km/h 55 % 0 in /  0.0 mm
11:24 83.1 °F /  28.4 °C 65.3 °F /  18.5 °C 30 in /  1014.8 hPa ESE 4.6 mph /  7.4 km/h 4.6 mph /  7.4 km/h 55 % 0 in /  0.0 mm
11:29 83.5 °F /  28.6 °C 66 °F /  18.9 °C 30 in /  1014.8 hPa ESE 3.5 mph /  5.6 km/h 3.5 mph /  5.6 km/h 56 % 0 in /  0.0 mm
11:34 83.8 °F /  28.8 °C 65.8 °F /  18.8 °C 30 in /  1014.8 hPa ENE 2.9 mph /  4.7 km/h 2.9 mph /  4.7 km/h 55 % 0 in /  0.0 mm
11:39 83.1 °F /  28.4 °C 65.3 °F /  18.5 °C 30 in /  1014.8 hPa East 4.6 mph /  7.4 km/h 4.6 mph /  7.4 km/h 55 % 0 in /  0.0 mm
11:41 83.5 °F /  28.6 °C 65.7 °F /  18.7 °C 30 in /  1014.8 hPa SSW 2.3 mph /  3.7 km/h 2.3 mph /  3.7 km/h 55 % 0 in /  0.0 mm
11:46 85.3 °F /  29.6 °C 66.2 °F /  19.0 °C 30 in /  1014.8 hPa South 4.6 mph /  7.4 km/h 4.6 mph /  7.4 km/h 53 % 0 in /  0.0 mm
11:51 86.5 °F /  30.3 °C 67.8 °F /  19.9 °C 30 in /  1014.8 hPa WSW 3.6 mph /  5.8 km/h 3.6 mph /  5.8 km/h 54 % 0 in /  0.0 mm
11:56 85.8 °F /  29.9 °C 66.2 °F /  19.0 °C 30 in /  1014.8 hPa East 3.5 mph /  5.6 km/h 3.5 mph /  5.6 km/h 52 % 0 in /  0.0 mm
12:01 86.4 °F /  30.2 °C 66 °F /  18.9 °C 30 in /  1014.8 hPa SE 4.7 mph /  7.6 km/h 4.7 mph /  7.6 km/h 51 % 0 in /  0.0 mm
12:06 87.4 °F /  30.8 °C 67.6 °F /  19.8 °C 30 in /  1014.8 hPa SE 2.3 mph /  3.7 km/h 2.3 mph /  3.7 km/h 52 % 0 in /  0.0 mm
12:11 86.5 °F /  30.3 °C 65.7 °F /  18.7 °C 30 in /  1014.8 hPa ESE 4.7 mph /  7.6 km/h 4.7 mph /  7.6 km/h 50 % 0 in /  0.0 mm
12:13 86 °F /  30.0 °C 65.8 °F /  18.8 °C 30 in /  1014.8 hPa ENE 4.6 mph /  7.4 km/h 4.6 mph /  7.4 km/h 51 % 0 in /  0.0 mm
12:18 85.6 °F /  29.8 °C 65.5 °F /  18.6 °C 30 in /  1014.8 hPa NNE 5.8 mph /  9.3 km/h 5.8 mph /  9.3 km/h 51 % 0 in /  0.0 mm
12:23 86.4 °F /  30.2 °C 65.5 °F /  18.6 °C 30 in /  1014.8 hPa SE 3.5 mph /  5.6 km/h 3.5 mph /  5.6 km/h 50 % 0 in /  0.0 mm
12:28 87.8 °F /  31.0 °C 66.7 °F /  19.3 °C 30 in /  1014.8 hPa WSW 4.6 mph /  7.4 km/h 4.6 mph /  7.4 km/h 50 % 0 in /  0.0 mm
12:33 88.9 °F /  31.6 °C 67.3 °F /  19.6 °C 30 in /  1014.8 hPa SSE 1.6 mph /  2.6 km/h 1.6 mph /  2.6 km/h 49 % 0 in /  0.0 mm
12:38 89.2 °F /  31.8 °C 67.6 °F /  19.8 °C 30 in /  1014.8 hPa WNW 4.6 mph /  7.4 km/h 4.6 mph /  7.4 km/h 49 % 0 in /  0.0 mm
12:43 87.4 °F /  30.8 °C 65.3 °F /  18.5 °C 30 in /  1014.8 hPa East 6.9 mph /  11.1 km/h 6.9 mph /  11.1 km/h 48 % 0 in /  0.0 mm
12:48 86.9 °F /  30.5 °C 66 °F /  18.9 °C 29.9 in /  1013.8 hPa NE 4.6 mph /  7.4 km/h 4.6 mph /  7.4 km/h 50 % 0 in /  0.0 mm
12:53 87.6 °F /  30.9 °C 66 °F /  18.9 °C 29.9 in /  1013.8 hPa SSE 8.1 mph /  13.0 km/h 8.1 mph /  13.0 km/h 49 % 0 in /  0.0 mm
13:03 88 °F /  31.1 °C 65.8 °F /  18.8 °C 29.9 in /  1013.8 hPa ESE 6.9 mph /  11.1 km/h 6.9 mph /  11.1 km/h 48 % 0 in /  0.0 mm
13:08 86.7 °F /  30.4 °C 65.3 °F /  18.5 °C 29.9 in /  1013.8 hPa ESE 8.1 mph /  13.0 km/h 8.1 mph /  13.0 km/h 49 % 0 in /  0.0 mm
13:13 86.5 °F /  30.3 °C 65.7 °F /  18.7 °C 29.9 in /  1013.8 hPa SE 8.1 mph /  13.0 km/h 8.1 mph /  13.0 km/h 50 % 0 in /  0.0 mm
13:18 86.5 °F /  30.3 °C 65.7 °F /  18.7 °C 29.9 in /  1013.8 hPa ESE 11.5 mph /  18.5 km/h 11.5 mph /  18.5 km/h 50 % 0 in /  0.0 mm
13:23 86.5 °F /  30.3 °C 65.7 °F /  18.7 °C 29.9 in /  1013.8 hPa ENE 9.2 mph /  14.8 km/h 9.2 mph /  14.8 km/h 50 % 0 in /  0.0 mm
13:28 86.5 °F /  30.3 °C 65.7 °F /  18.7 °C 29.9 in /  1013.8 hPa NE 9.2 mph /  14.8 km/h 9.2 mph /  14.8 km/h 50 % 0 in /  0.0 mm
13:33 87.1 °F /  30.6 °C 66.2 °F /  19.0 °C 29.9 in /  1013.8 hPa ESE 6.9 mph /  11.1 km/h 6.9 mph /  11.1 km/h 50 % 0 in /  0.0 mm
13:38 86.5 °F /  30.3 °C 65.1 °F /  18.4 °C 29.9 in /  1013.8 hPa SE 11.5 mph /  18.5 km/h 11.5 mph /  18.5 km/h 49 % 0 in /  0.0 mm
13:43 86.5 °F /  30.3 °C 65.7 °F /  18.7 °C 29.9 in /  1013.8 hPa SSE 10.9 mph /  17.5 km/h 10.9 mph /  17.5 km/h 50 % 0 in /  0.0 mm
13:48 86.9 °F /  30.5 °C 66 °F /  18.9 °C 29.9 in /  1013.8 hPa ENE 10.4 mph /  16.7 km/h 10.4 mph /  16.7 km/h 50 % 0 in /  0.0 mm
13:53 86.9 °F /  30.5 °C 65.5 °F /  18.6 °C 29.9 in /  1013.8 hPa ESE 11.5 mph /  18.5 km/h 11.5 mph /  18.5 km/h 49 % 0 in /  0.0 mm
13:58 87.1 °F /  30.6 °C 65.7 °F /  18.7 °C 29.9 in /  1013.8 hPa ESE 10.4 mph /  16.7 km/h 10.4 mph /  16.7 km/h 49 % 0 in /  0.0 mm
14:03 87.4 °F /  30.8 °C 65.8 °F /  18.8 °C 29.9 in /  1013.8 hPa SSE 10.4 mph /  16.7 km/h 10.4 mph /  16.7 km/h 49 % 0 in /  0.0 mm
14:08 86.7 °F /  30.4 °C 65.3 °F /  18.5 °C 29.9 in /  1013.8 hPa SE 15 mph /  24.1 km/h 15 mph /  24.1 km/h 49 % 0 in /  0.0 mm
14:13 86.9 °F /  30.5 °C 66 °F /  18.9 °C 29.9 in /  1013.8 hPa ESE 10.4 mph /  16.7 km/h 10.4 mph /  16.7 km/h 50 % 0 in /  0.0 mm
14:18 86.9 °F /  30.5 °C 66 °F /  18.9 °C 29.9 in /  1013.8 hPa ENE 10.4 mph /  16.7 km/h 10.4 mph /  16.7 km/h 50 % 0 in /  0.0 mm
14:23 86.4 °F /  30.2 °C 65.5 °F /  18.6 °C 29.9 in /  1013.8 hPa ESE 12.3 mph /  19.8 km/h 12.3 mph /  19.8 km/h 50 % 0 in /  0.0 mm
14:28 86.7 °F /  30.4 °C 65.8 °F /  18.8 °C 29.9 in /  1013.8 hPa WSW 5.8 mph /  9.3 km/h 5.8 mph /  9.3 km/h 50 % 0 in /  0.0 mm
14:33 87.1 °F /  30.6 °C 66.2 °F /  19.0 °C 29.9 in /  1013.8 hPa ESE 8.1 mph /  13.0 km/h 8.1 mph /  13.0 km/h 50 % 0 in /  0.0 mm
14:38 87.3 °F /  30.7 °C 66.4 °F /  19.1 °C 29.9 in /  1013.8 hPa SSW 5.8 mph /  9.3 km/h 5.8 mph /  9.3 km/h 50 % 0 in /  0.0 mm
14:43 88.2 °F /  31.2 °C 66 °F /  18.9 °C 29.9 in /  1013.8 hPa SE 6.9 mph /  11.1 km/h 6.9 mph /  11.1 km/h 48 % 0 in /  0.0 mm
14:48 90.5 °F /  32.5 °C 65.7 °F /  18.7 °C 29.9 in /  1012.8 hPa South 4.7 mph /  7.6 km/h 4.7 mph /  7.6 km/h 44 % 0 in /  0.0 mm
14:53 92.3 °F /  33.5 °C 65.1 °F /  18.4 °C 29.9 in /  1012.8 hPa SW 5.6 mph /  9.0 km/h 5.6 mph /  9.0 km/h 41 % 0 in /  0.0 mm
14:58 92.5 °F /  33.6 °C 65.5 °F /  18.6 °C 29.9 in /  1012.8 hPa West 8.1 mph /  13.0 km/h 8.1 mph /  13.0 km/h 41 % 0 in /  0.0 mm
15:03 92.7 °F /  33.7 °C 63.3 °F /  17.4 °C 29.9 in /  1012.8 hPa South 4.6 mph /  7.4 km/h 4.6 mph /  7.4 km/h 38 % 0 in /  0.0 mm
15:13 92.7 °F /  33.7 °C 63.3 °F /  17.4 °C 29.9 in /  1013.8 hPa SW 6.9 mph /  11.1 km/h 6.9 mph /  11.1 km/h 38 % 0 in /  0.0 mm
15:18 93 °F /  33.9 °C 63 °F /  17.2 °C 29.9 in /  1013.8 hPa SSW 8.1 mph /  13.0 km/h 8.1 mph /  13.0 km/h 37 % 0 in /  0.0 mm
15:23 93.6 °F /  34.2 °C 62.6 °F /  17.0 °C 29.9 in /  1013.8 hPa WSW 3.5 mph /  5.6 km/h 3.5 mph /  5.6 km/h 36 % 0 in /  0.0 mm
15:28 93.2 °F /  34.0 °C 61.5 °F /  16.4 °C 29.9 in /  1013.8 hPa SW 4.6 mph /  7.4 km/h 4.6 mph /  7.4 km/h 35 % 0 in /  0.0 mm
15:33 94.3 °F /  34.6 °C 63.1 °F /  17.3 °C 29.9 in /  1013.8 hPa WSW 3.8 mph /  6.1 km/h 3.8 mph /  6.1 km/h 36 % 0 in /  0.0 mm
15:38 94.8 °F /  34.9 °C 62.1 °F /  16.7 °C 29.9 in /  1013.8 hPa SW 6.9 mph /  11.1 km/h 6.9 mph /  11.1 km/h 34 % 0 in /  0.0 mm
15:43 94.3 °F /  34.6 °C 61.5 °F /  16.4 °C 29.9 in /  1013.8 hPa West 4.6 mph /  7.4 km/h 4.6 mph /  7.4 km/h 34 % 0 in /  0.0 mm
15:48 94.6 °F /  34.8 °C 61.2 °F /  16.2 °C 29.9 in /  1013.8 hPa SSW 3.5 mph /  5.6 km/h 3.5 mph /  5.6 km/h 33 % 0 in /  0.0 mm
15:53 94.6 °F /  34.8 °C 61.2 °F /  16.2 °C 29.9 in /  1013.8 hPa South 5.8 mph /  9.3 km/h 5.8 mph /  9.3 km/h 33 % 0 in /  0.0 mm
15:58 94.1 °F /  34.5 °C 59.7 °F /  15.4 °C 29.9 in /  1013.8 hPa West 5.8 mph /  9.3 km/h 5.8 mph /  9.3 km/h 32 % 0 in /  0.0 mm
16:03 93.9 °F /  34.4 °C 59.5 °F /  15.3 °C 29.9 in /  1013.8 hPa SSW 7.1 mph /  11.4 km/h 7.1 mph /  11.4 km/h 32 % 0 in /  0.0 mm
16:08 93.9 °F /  34.4 °C 58.6 °F /  14.8 °C 29.9 in /  1013.8 hPa South 9.2 mph /  14.8 km/h 9.2 mph /  14.8 km/h 31 % 0 in /  0.0 mm
16:13 93.6 °F /  34.2 °C 59.4 °F /  15.2 °C 29.9 in /  1013.8 hPa WSW 3.6 mph /  5.8 km/h 3.6 mph /  5.8 km/h 32 % 0 in /  0.0 mm
16:18 93 °F /  33.9 °C 58.8 °F /  14.9 °C 29.9 in /  1013.8 hPa SSW 4.6 mph /  7.4 km/h 4.6 mph /  7.4 km/h 32 % 0 in /  0.0 mm
16:23 93 °F /  33.9 °C 57.9 °F /  14.4 °C 29.9 in /  1013.8 hPa SW 12.7 mph /  20.4 km/h 12.7 mph /  20.4 km/h 31 % 0 in /  0.0 mm
16:28 93.2 °F /  34.0 °C 58.1 °F /  14.5 °C 29.9 in /  1013.8 hPa SW 5.8 mph /  9.3 km/h 5.8 mph /  9.3 km/h 31 % 0 in /  0.0 mm
16:33 93.4 °F /  34.1 °C 57.4 °F /  14.1 °C 29.9 in /  1013.8 hPa South 9.2 mph /  14.8 km/h 9.2 mph /  14.8 km/h 30 % 0 in /  0.0 mm
16:38 93.6 °F /  34.2 °C 57.6 °F /  14.2 °C 29.9 in /  1013.8 hPa SSW 4.6 mph /  7.4 km/h 4.6 mph /  7.4 km/h 30 % 0 in /  0.0 mm
16:43 93.9 °F /  34.4 °C 58.6 °F /  14.8 °C 29.9 in /  1013.8 hPa WSW 4 mph /  6.4 km/h 4 mph /  6.4 km/h 31 % 0 in /  0.0 mm
16:48 94.1 °F /  34.5 °C 58.8 °F /  14.9 °C 29.9 in /  1013.8 hPa SW 5.8 mph /  9.3 km/h 5.8 mph /  9.3 km/h 31 % 0 in /  0.0 mm
16:53 93.4 °F /  34.1 °C 57.4 °F /  14.1 °C 29.9 in /  1012.8 hPa SW 9.7 mph /  15.6 km/h 9.7 mph /  15.6 km/h 30 % 0 in /  0.0 mm
16:58 92.3 °F /  33.5 °C 56.5 °F /  13.6 °C 29.9 in /  1012.8 hPa SSW 6.9 mph /  11.1 km/h 6.9 mph /  11.1 km/h 30 % 0 in /  0.0 mm
17:03 92.3 °F /  33.5 °C 56.5 °F /  13.6 °C 29.9 in /  1013.8 hPa WNW 8.1 mph /  13.0 km/h 8.1 mph /  13.0 km/h 30 % 0 in /  0.0 mm
17:08 92.5 °F /  33.6 °C 56.5 °F /  13.6 °C 29.9 in /  1013.8 hPa SW 6.9 mph /  11.1 km/h 6.9 mph /  11.1 km/h 30 % 0 in /  0.0 mm
17:18 92.3 °F /  33.5 °C 55.4 °F /  13.0 °C 29.9 in /  1013.8 hPa ESE 4.6 mph /  7.4 km/h 4.6 mph /  7.4 km/h 29 % 0 in /  0.0 mm
17:23 92.5 °F /  33.6 °C 56.5 °F /  13.6 °C 29.9 in /  1013.8 hPa SW 5.8 mph /  9.3 km/h 5.8 mph /  9.3 km/h 30 % 0 in /  0.0 mm
17:28 91.4 °F /  33.0 °C 54.7 °F /  12.6 °C 29.9 in /  1013.8 hPa South 9.2 mph /  14.8 km/h 9.2 mph /  14.8 km/h 29 % 0 in /  0.0 mm
17:33 91.2 °F /  32.9 °C 55.6 °F /  13.1 °C 29.9 in /  1012.8 hPa South 6.9 mph /  11.1 km/h 6.9 mph /  11.1 km/h 30 % 0 in /  0.0 mm
17:38 91.6 °F /  33.1 °C 54.9 °F /  12.7 °C 29.9 in /  1012.8 hPa SSW 8.1 mph /  13.0 km/h 8.1 mph /  13.0 km/h 29 % 0 in /  0.0 mm
17:43 90.5 °F /  32.5 °C 54.9 °F /  12.7 °C 29.9 in /  1012.8 hPa SSW 6.9 mph /  11.1 km/h 6.9 mph /  11.1 km/h 30 % 0 in /  0.0 mm
17:48 91.2 °F /  32.9 °C 55.6 °F /  13.1 °C 29.9 in /  1013.8 hPa SSW 5.8 mph /  9.3 km/h 5.8 mph /  9.3 km/h 30 % 0 in /  0.0 mm
17:53 91 °F /  32.8 °C 55.2 °F /  12.9 °C 29.9 in /  1013.8 hPa SW 8.1 mph /  13.0 km/h 8.1 mph /  13.0 km/h 30 % 0 in /  0.0 mm
17:58 91.2 °F /  32.9 °C 56.5 °F /  13.6 °C 29.9 in /  1013.8 hPa ESE 4.6 mph /  7.4 km/h 4.6 mph /  7.4 km/h 31 % 0 in /  0.0 mm
18:03 91.2 °F /  32.9 °C 56.5 °F /  13.6 °C 29.9 in /  1012.8 hPa SW 6.9 mph /  11.1 km/h 6.9 mph /  11.1 km/h 31 % 0 in /  0.0 mm
18:08 90.7 °F /  32.6 °C 55.9 °F /  13.3 °C 29.9 in /  1012.8 hPa SW 5.8 mph /  9.3 km/h 5.8 mph /  9.3 km/h 31 % 0 in /  0.0 mm
18:13 90.5 °F /  32.5 °C 55.8 °F /  13.2 °C 29.9 in /  1012.8 hPa SW 9.2 mph /  14.8 km/h 9.2 mph /  14.8 km/h 31 % 0 in /  0.0 mm
18:18 89.8 °F /  32.1 °C 55 °F /  12.8 °C 29.9 in /  1012.8 hPa SW 8.1 mph /  13.0 km/h 8.1 mph /  13.0 km/h 31 % 0 in /  0.0 mm
18:23 89.4 °F /  31.9 °C 54.9 °F /  12.7 °C 29.9 in /  1012.8 hPa SW 10.4 mph /  16.7 km/h 10.4 mph /  16.7 km/h 31 % 0 in /  0.0 mm
18:33 89.8 °F /  32.1 °C 55.9 °F /  13.3 °C 29.9 in /  1013.8 hPa SW 6.9 mph /  11.1 km/h 6.9 mph /  11.1 km/h 32 % 0 in /  0.0 mm
18:38 89.6 °F /  32.0 °C 55.8 °F /  13.2 °C 29.9 in /  1013.8 hPa SW 3.8 mph /  6.1 km/h 3.8 mph /  6.1 km/h 32 % 0 in /  0.0 mm
18:43 89.8 °F /  32.1 °C 55.9 °F /  13.3 °C 29.9 in /  1013.8 hPa SSW 3.5 mph /  5.6 km/h 3.5 mph /  5.6 km/h 32 % 0 in /  0.0 mm
18:48 90 °F /  32.2 °C 56.1 °F /  13.4 °C 29.9 in /  1012.8 hPa SSW 4.7 mph /  7.6 km/h 4.7 mph /  7.6 km/h 32 % 0 in /  0.0 mm
18:53 89.1 °F /  31.7 °C 56.1 °F /  13.4 °C 29.9 in /  1012.8 hPa WSW 8.1 mph /  13.0 km/h 8.1 mph /  13.0 km/h 33 % 0 in /  0.0 mm
18:58 88.9 °F /  31.6 °C 56.1 °F /  13.4 °C 29.9 in /  1012.8 hPa South 6.9 mph /  11.1 km/h 6.9 mph /  11.1 km/h 33 % 0 in /  0.0 mm
19:03 89.1 °F /  31.7 °C 57 °F /  13.9 °C 29.9 in /  1012.8 hPa SW 5.8 mph /  9.3 km/h 5.8 mph /  9.3 km/h 34 % 0 in /  0.0 mm
19:08 88.5 °F /  31.4 °C 56.7 °F /  13.7 °C 29.9 in /  1012.8 hPa SW 5.8 mph /  9.3 km/h 5.8 mph /  9.3 km/h 34 % 0 in /  0.0 mm
19:13 87.8 °F /  31.0 °C 55.9 °F /  13.3 °C 29.9 in /  1012.8 hPa SW 8.1 mph /  13.0 km/h 8.1 mph /  13.0 km/h 34 % 0 in /  0.0 mm
19:18 88.2 °F /  31.2 °C 56.3 °F /  13.5 °C 29.9 in /  1012.8 hPa SW 5.8 mph /  9.3 km/h 5.8 mph /  9.3 km/h 34 % 0 in /  0.0 mm
19:23 87.6 °F /  30.9 °C 56.7 °F /  13.7 °C 29.9 in /  1012.8 hPa South 6 mph /  9.7 km/h 6 mph /  9.7 km/h 35 % 0 in /  0.0 mm
19:28 86.9 °F /  30.5 °C 56.7 °F /  13.7 °C 29.9 in /  1012.8 hPa WSW 6.2 mph /  10.0 km/h 6.2 mph /  10.0 km/h 36 % 0 in /  0.0 mm
19:33 87.1 °F /  30.6 °C 56.8 °F /  13.8 °C 29.9 in /  1012.8 hPa SSE 4.3 mph /  6.9 km/h 4.3 mph /  6.9 km/h 36 % 0 in /  0.0 mm
19:38 86.7 °F /  30.4 °C 56.7 °F /  13.7 °C 29.9 in /  1012.8 hPa SW 4.6 mph /  7.4 km/h 4.6 mph /  7.4 km/h 36 % 0 in /  0.0 mm
19:43 86.7 °F /  30.4 °C 56.7 °F /  13.7 °C 29.9 in /  1012.8 hPa SW 5.8 mph /  9.3 km/h 5.8 mph /  9.3 km/h 36 % 0 in /  0.0 mm
19:48 86.5 °F /  30.3 °C 56.5 °F /  13.6 °C 29.9 in /  1012.8 hPa SW 4.9 mph /  7.9 km/h 4.9 mph /  7.9 km/h 36 % 0 in /  0.0 mm
19:53 86 °F /  30.0 °C 55.9 °F /  13.3 °C 29.9 in /  1012.8 hPa SW 4.6 mph /  7.4 km/h 4.6 mph /  7.4 km/h 36 % 0 in /  0.0 mm
19:58 85.6 °F /  29.8 °C 56.5 °F /  13.6 °C 29.9 in /  1012.8 hPa SW 6.9 mph /  11.1 km/h 6.9 mph /  11.1 km/h 37 % 0 in /  0.0 mm
20:03 85.5 °F /  29.7 °C 57 °F /  13.9 °C 29.9 in /  1011.7 hPa SW 3.5 mph /  5.6 km/h 3.5 mph /  5.6 km/h 38 % 0 in /  0.0 mm
20:08 85.3 °F /  29.6 °C 56.8 °F /  13.8 °C 29.9 in /  1011.7 hPa SSW 2.3 mph /  3.7 km/h 2.3 mph /  3.7 km/h 38 % 0 in /  0.0 mm
20:13 85.1 °F /  29.5 °C 56.7 °F /  13.7 °C 29.9 in /  1011.7 hPa South 5.8 mph /  9.3 km/h 5.8 mph /  9.3 km/h 38 % 0 in /  0.0 mm
20:18 84.9 °F /  29.4 °C 56.5 °F /  13.6 °C 29.9 in /  1012.8 hPa SE 3.1 mph /  5.0 km/h 3.1 mph /  5.0 km/h 38 % 0 in /  0.0 mm
20:23 84.7 °F /  29.3 °C 56.3 °F /  13.5 °C 29.9 in /  1012.8 hPa SW 4 mph /  6.4 km/h 4 mph /  6.4 km/h 38 % 0 in /  0.0 mm
20:28 84.6 °F /  29.2 °C 56.8 °F /  13.8 °C 29.9 in /  1012.8 hPa West 4.6 mph /  7.4 km/h 4.6 mph /  7.4 km/h 39 % 0 in /  0.0 mm
20:33 84.2 °F /  29.0 °C 56.7 °F /  13.7 °C 29.9 in /  1011.7 hPa WSW 2.3 mph /  3.7 km/h 2.3 mph /  3.7 km/h 39 % 0 in /  0.0 mm
20:38 84 °F /  28.9 °C 57.7 °F /  14.3 °C 29.9 in /  1011.7 hPa West 4.6 mph /  7.4 km/h 4.6 mph /  7.4 km/h 41 % 0 in /  0.0 mm
20:40 73.4 °F /  23.0 °C 61.3 °F /  16.3 °C 29.9 in /  1012.8 hPa Calm     66 % 0 in /  0.0 mm
20:43 83.5 °F /  28.6 °C 57.4 °F /  14.1 °C 29.9 in /  1011.7 hPa SW 3.5 mph /  5.6 km/h 3.5 mph /  5.6 km/h 41 % 0 in /  0.0 mm
20:48 83.3 °F /  28.5 °C 57 °F /  13.9 °C 29.9 in /  1012.8 hPa SW 2.9 mph /  4.7 km/h 2.9 mph /  4.7 km/h 41 % 0 in /  0.0 mm
20:50 73.4 °F /  23.0 °C 61.9 °F /  16.6 °C 29.9 in /  1012.8 hPa Calm     67 % 0 in /  0.0 mm
20:53 83.1 °F /  28.4 °C 57.6 °F /  14.2 °C 29.9 in /  1012.8 hPa SW 2.3 mph /  3.7 km/h 2.3 mph /  3.7 km/h 42 % 0 in /  0.0 mm
20:58 82.8 °F /  28.2 °C 57.4 °F /  14.1 °C 29.9 in /  1012.8 hPa SW 3.6 mph /  5.8 km/h 3.6 mph /  5.8 km/h 42 % 0 in /  0.0 mm
21:00 73.2 °F /  22.9 °C 61.5 °F /  16.4 °C 29.9 in /  1012.8 hPa Calm     67 % 0 in /  0.0 mm
21:03 82.4 °F /  28.0 °C 57 °F /  13.9 °C 29.9 in /  1012.8 hPa WSW 4.7 mph /  7.6 km/h 4.7 mph /  7.6 km/h 42 % 0 in /  0.0 mm
21:08 82 °F /  27.8 °C 57.4 °F /  14.1 °C 29.9 in /  1012.8 hPa WSW 3.6 mph /  5.8 km/h 3.6 mph /  5.8 km/h 43 % 0 in /  0.0 mm
21:10 73 °F /  22.8 °C 61.9 °F /  16.6 °C 29.9 in /  1012.8 hPa Calm     68 % 0 in /  0.0 mm
21:13 81.7 °F /  27.6 °C 57 °F /  13.9 °C 29.9 in /  1012.8 hPa SW 3.5 mph /  5.6 km/h 3.5 mph /  5.6 km/h 43 % 0 in /  0.0 mm
21:18 81.5 °F /  27.5 °C 57.6 °F /  14.2 °C 29.9 in /  1012.8 hPa SW 2.9 mph /  4.7 km/h 2.9 mph /  4.7 km/h 44 % 0 in /  0.0 mm
21:20 72.9 °F /  22.7 °C 61.7 °F /  16.5 °C 29.9 in /  1013.8 hPa Calm   2 mph /  3.2 km/h 68 % 0 in /  0.0 mm
21:23 81.1 °F /  27.3 °C 57.2 °F /  14.0 °C 29.9 in /  1012.8 hPa SSW 3.5 mph /  5.6 km/h 3.5 mph /  5.6 km/h 44 % 0 in /  0.0 mm
21:28 81 °F /  27.2 °C 57.6 °F /  14.2 °C 29.9 in /  1012.8 hPa SW 3.5 mph /  5.6 km/h 3.5 mph /  5.6 km/h 45 % 0 in /  0.0 mm
21:33 80.6 °F /  27.0 °C 57.4 °F /  14.1 °C 29.9 in /  1012.8 hPa SW 2.3 mph /  3.7 km/h 2.3 mph /  3.7 km/h 45 % 0 in /  0.0 mm
21:38 80.2 °F /  26.8 °C 58.3 °F /  14.6 °C 29.9 in /  1012.8 hPa SW 3.5 mph /  5.6 km/h 3.5 mph /  5.6 km/h 47 % 0 in /  0.0 mm
21:40 72.1 °F /  22.3 °C 61.3 °F /  16.3 °C 29.9 in /  1012.8 hPa Calm   1 mph /  1.6 km/h 69 % 0 in /  0.0 mm
21:43 80.1 °F /  26.7 °C 57.9 °F /  14.4 °C 29.9 in /  1012.8 hPa SW 2.3 mph /  3.7 km/h 2.3 mph /  3.7 km/h 47 % 0 in /  0.0 mm
21:48 79.9 °F /  26.6 °C 57.7 °F /  14.3 °C 29.9 in /  1012.8 hPa SW 3.5 mph /  5.6 km/h 3.5 mph /  5.6 km/h 47 % 0 in /  0.0 mm
21:50 72 °F /  22.2 °C 61.2 °F /  16.2 °C 29.9 in /  1012.8 hPa ENE 1 mph /  1.6 km/h 2 mph /  3.2 km/h 69 % 0 in /  0.0 mm
21:53 79.7 °F /  26.5 °C 58.3 °F /  14.6 °C 29.9 in /  1012.8 hPa SW 2.3 mph /  3.7 km/h 2.3 mph /  3.7 km/h 48 % 0 in /  0.0 mm
21:58 79.3 °F /  26.3 °C 57.9 °F /  14.4 °C 29.9 in /  1012.8 hPa SW 2.6 mph /  4.2 km/h 2.6 mph /  4.2 km/h 48 % 0 in /  0.0 mm
22:00 71.8 °F /  22.1 °C 61.2 °F /  16.2 °C 29.9 in /  1012.8 hPa ENE 1 mph /  1.6 km/h 2 mph /  3.2 km/h 69 % 0 in /  0.0 mm
22:03 79.2 °F /  26.2 °C 58.5 °F /  14.7 °C 29.9 in /  1013.8 hPa SSW 1.2 mph /  1.9 km/h 1.2 mph /  1.9 km/h 49 % 0 in /  0.0 mm
22:08 79 °F /  26.1 °C 58.3 °F /  14.6 °C 29.9 in /  1013.8 hPa WSW 1.2 mph /  1.9 km/h 1.2 mph /  1.9 km/h 49 % 0 in /  0.0 mm
22:10 71.2 °F /  21.8 °C 60.4 °F /  15.8 °C 29.9 in /  1012.8 hPa NE 2 mph /  3.2 km/h 2 mph /  3.2 km/h 69 % 0 in /  0.0 mm
22:13 79 °F /  26.1 °C 58.3 °F /  14.6 °C 29.9 in /  1013.8 hPa WSW 2.3 mph /  3.7 km/h 2.3 mph /  3.7 km/h 49 % 0 in /  0.0 mm
22:18 78.6 °F /  25.9 °C 58.5 °F /  14.7 °C 29.9 in /  1013.8 hPa WSW 1.2 mph /  1.9 km/h   50 % 0 in /  0.0 mm
22:20 70.9 °F /  21.6 °C 60.3 °F /  15.7 °C 29.9 in /  1012.8 hPa NE 1 mph /  1.6 km/h 2 mph /  3.2 km/h 69 % 0 in /  0.0 mm
22:23 78.4 °F /  25.8 °C 58.3 °F /  14.6 °C 29.9 in /  1013.8 hPa WSW 2.3 mph /  3.7 km/h 2.3 mph /  3.7 km/h 50 % 0 in /  0.0 mm
22:28 78.4 °F /  25.8 °C 58.8 °F /  14.9 °C 29.9 in /  1013.8 hPa Calm     51 % 0 in /  0.0 mm
22:30 70.9 °F /  21.6 °C 59.7 °F /  15.4 °C 29.9 in /  1012.8 hPa Calm   2 mph /  3.2 km/h 68 % 0 in /  0.0 mm
22:33 78.3 °F /  25.7 °C 58.6 °F /  14.8 °C 29.9 in /  1013.8 hPa West 1.2 mph /  1.9 km/h   51 % 0 in /  0.0 mm
22:38 78.1 °F /  25.6 °C 59 °F /  15.0 °C 29.9 in /  1013.8 hPa West 1.4 mph /  2.3 km/h   52 % 0 in /  0.0 mm
22:40 70.7 °F /  21.5 °C 59.2 °F /  15.1 °C 29.9 in /  1011.7 hPa Calm     67 % 0 in /  0.0 mm
22:43 78.1 °F /  25.6 °C 59 °F /  15.0 °C 29.9 in /  1013.8 hPa West 1.2 mph /  1.9 km/h   52 % 0 in /  0.0 mm
22:48 77.9 °F /  25.5 °C 59.4 °F /  15.2 °C 29.9 in /  1013.8 hPa West 1.2 mph /  1.9 km/h 1.2 mph /  1.9 km/h 53 % 0 in /  0.0 mm
22:50 70.5 °F /  21.4 °C 60.3 °F /  15.7 °C 29.9 in /  1012.8 hPa Calm     70 % 0 in /  0.0 mm
22:53 77.9 °F /  25.5 °C 59.4 °F /  15.2 °C 29.9 in /  1013.8 hPa WSW 2.3 mph /  3.7 km/h 2.3 mph /  3.7 km/h 53 % 0 in /  0.0 mm
22:58 77.7 °F /  25.4 °C 59.7 °F /  15.4 °C 29.9 in /  1013.8 hPa WSW 2.3 mph /  3.7 km/h 2.3 mph /  3.7 km/h 54 % 0 in /  0.0 mm
23:00 70 °F /  21.1 °C 58.8 °F /  14.9 °C 29.9 in /  1012.8 hPa Calm     68 % 0 in /  0.0 mm
23:03 77.7 °F /  25.4 °C 59.7 °F /  15.4 °C 29.9 in /  1012.8 hPa SW 2.3 mph /  3.7 km/h 2.3 mph /  3.7 km/h 54 % 0 in /  0.0 mm
23:08 77.5 °F /  25.3 °C 59.5 °F /  15.3 °C 29.9 in /  1012.8 hPa SW 1.2 mph /  1.9 km/h   54 % 0 in /  0.0 mm
23:10 70.2 °F /  21.2 °C 58.6 °F /  14.8 °C 29.9 in /  1011.7 hPa Calm     67 % 0 in /  0.0 mm
23:13 77.2 °F /  25.1 °C 59.7 °F /  15.4 °C 29.9 in /  1012.8 hPa WSW 1.2 mph /  1.9 km/h   55 % 0 in /  0.0 mm
23:18 77.2 °F /  25.1 °C 59.7 °F /  15.4 °C 29.9 in /  1012.8 hPa West 2.3 mph /  3.7 km/h 2.3 mph /  3.7 km/h 55 % 0 in /  0.0 mm
23:20 70.2 °F /  21.2 °C 59.5 °F /  15.3 °C 29.9 in /  1011.7 hPa Calm     69 % 0 in /  0.0 mm
23:23 77 °F /  25.0 °C 60.1 °F /  15.6 °C 29.9 in /  1012.8 hPa WSW 1.2 mph /  1.9 km/h   56 % 0 in /  0.0 mm
23:28 77 °F /  25.0 °C 60.1 °F /  15.6 °C 29.9 in /  1012.8 hPa West 1.4 mph /  2.3 km/h 1.4 mph /  2.3 km/h 56 % 0 in /  0.0 mm
23:30 70 °F /  21.1 °C 58.8 °F /  14.9 °C 29.9 in /  1011.7 hPa NNE 1 mph /  1.6 km/h 1 mph /  1.6 km/h 68 % 0 in /  0.0 mm
23:33 77 °F /  25.0 °C 60.1 °F /  15.6 °C 29.9 in /  1013.8 hPa West 2 mph /  3.2 km/h 2 mph /  3.2 km/h 56 % 0 in /  0.0 mm
23:38 76.8 °F /  24.9 °C 60.4 °F /  15.8 °C 29.9 in /  1013.8 hPa WSW 2.3 mph /  3.7 km/h 2.3 mph /  3.7 km/h 57 % 0 in /  0.0 mm
23:40 70.2 °F /  21.2 °C 58.6 °F /  14.8 °C 29.9 in /  1011.7 hPa Calm   1 mph /  1.6 km/h 67 % 0 in /  0.0 mm
23:43 76.8 °F /  24.9 °C 61 °F /  16.1 °C 29.9 in /  1013.8 hPa WSW 2.3 mph /  3.7 km/h   58 % 0 in /  0.0 mm
23:49 76.6 °F /  24.8 °C 60.8 °F /  16.0 °C 29.9 in /  1013.8 hPa West 1.2 mph /  1.9 km/h   58 % 0 in /  0.0 mm
23:50 70 °F /  21.1 °C 59.4 °F /  15.2 °C 29.9 in /  1011.7 hPa Calm     69 % 0 in /  0.0 mm
23:54 76.5 °F /  24.7 °C 61.2 °F /  16.2 °C 29.9 in /  1013.8 hPa West 1.2 mph /  1.9 km/h   59 % 0 in /  0.0 mm
23:59 76.5 °F /  24.7 °C 61.2 °F /  16.2 °C 29.9 in /  1013.8 hPa WNW 2.3 mph /  3.7 km/h 2.3 mph /  3.7 km/h 59 % 0 in /  0.0 mm
Meteo Sesrovires
Elogis d' Weather Underground - 3.5 mb

Guio original per  Jim McMurry - jmcmurry@mwt.net Adaptat per a la plantilla per  Wim van der Kuil - Leuven-Template.eu

Trobareu la nostra informacio del temps tambe a:

Weather Underground

AWEKAS